createdAt,value
2023-03-19T00:00:20.411Z,570.00
2023-03-19T00:04:20.440Z,574.00
2023-03-19T00:08:20.561Z,566.00
2023-03-19T00:12:20.650Z,569.00
2023-03-19T00:16:20.776Z,566.00
2023-03-19T00:20:20.765Z,561.00
2023-03-19T00:24:20.863Z,562.00
2023-03-19T00:28:20.958Z,561.00
2023-03-19T00:32:21.065Z,561.00
2023-03-19T00:36:21.118Z,558.00
2023-03-19T00:40:21.210Z,557.00
2023-03-19T00:44:21.354Z,559.00
2023-03-19T00:48:21.410Z,560.00
2023-03-19T00:52:21.536Z,556.00
2023-03-19T00:56:21.634Z,556.00
2023-03-19T01:00:21.733Z,558.00
2023-03-19T01:04:21.908Z,558.00
2023-03-19T01:08:21.971Z,559.00
2023-03-19T01:12:22.043Z,559.00
2023-03-19T01:16:22.191Z,562.00
2023-03-19T01:20:22.315Z,558.00
2023-03-19T01:24:22.407Z,552.00
2023-03-19T01:28:22.504Z,550.00
2023-03-19T01:32:22.579Z,553.00
2023-03-19T01:36:22.715Z,550.00
2023-03-19T01:40:22.825Z,550.00
2023-03-19T01:44:22.937Z,551.00
2023-03-19T01:48:23.031Z,556.00
2023-03-19T01:52:23.143Z,551.00
2023-03-19T01:56:23.243Z,553.00
2023-03-19T02:00:23.329Z,553.00
2023-03-19T02:04:23.496Z,554.00
2023-03-19T02:08:23.567Z,544.00
2023-03-19T02:12:23.720Z,547.00
2023-03-19T02:16:23.897Z,547.00
2023-03-19T02:20:24.014Z,545.00
2023-03-19T02:24:24.175Z,545.00
2023-03-19T02:28:24.269Z,541.00
2023-03-19T02:32:24.381Z,543.00
2023-03-19T02:36:24.528Z,543.00
2023-03-19T02:40:24.665Z,544.00
2023-03-19T02:44:24.802Z,541.00
2023-03-19T02:48:24.888Z,545.00
2023-03-19T02:52:24.980Z,543.00
2023-03-19T02:56:25.103Z,543.00
2023-03-19T03:00:25.269Z,547.00
2023-03-19T03:04:25.378Z,544.00
2023-03-19T03:08:25.609Z,546.00
2023-03-19T03:12:25.662Z,547.00
2023-03-19T03:16:25.881Z,541.00
2023-03-19T03:20:25.954Z,545.00
2023-03-19T03:24:26.105Z,546.00
2023-03-19T03:28:26.241Z,546.00
2023-03-19T03:32:26.361Z,547.00
2023-03-19T03:36:26.517Z,544.00
2023-03-19T03:40:26.672Z,543.00
2023-03-19T03:44:26.833Z,544.00
2023-03-19T03:48:26.960Z,538.00
2023-03-19T03:52:27.140Z,537.00
2023-03-19T03:56:27.329Z,536.00
2023-03-19T04:00:27.456Z,541.00
2023-03-19T04:04:27.632Z,538.00
2023-03-19T04:08:27.826Z,539.00
2023-03-19T04:12:28.000Z,538.00
2023-03-19T04:16:28.210Z,542.00
2023-03-19T04:20:28.287Z,541.00
2023-03-19T04:24:28.446Z,538.00
2023-03-19T04:28:28.643Z,537.00
2023-03-19T04:32:28.761Z,536.00
2023-03-19T04:36:28.954Z,539.00
2023-03-19T04:40:29.091Z,538.00
2023-03-19T04:44:29.252Z,537.00
2023-03-19T04:48:29.410Z,536.00
2023-03-19T04:52:29.581Z,536.00
2023-03-19T04:56:29.688Z,536.00
2023-03-19T05:00:29.914Z,535.00
2023-03-19T05:04:30.056Z,535.00
2023-03-19T05:08:30.239Z,535.00
2023-03-19T05:12:30.340Z,534.00
2023-03-19T05:16:30.495Z,533.00
2023-03-19T05:20:30.652Z,536.00
2023-03-19T05:24:30.814Z,538.00
2023-03-19T05:28:30.976Z,537.00
2023-03-19T05:32:31.227Z,536.00
2023-03-19T05:36:31.325Z,543.00
2023-03-19T05:40:31.762Z,538.00
2023-03-19T05:44:31.661Z,543.00
2023-03-19T05:48:31.840Z,539.00
2023-03-19T05:52:31.982Z,538.00
2023-03-19T05:56:32.197Z,534.00
2023-03-19T06:00:32.603Z,538.00
2023-03-19T06:04:32.687Z,536.00
2023-03-19T06:08:32.655Z,539.00
2023-03-19T06:12:32.800Z,540.00
2023-03-19T06:16:32.925Z,541.00
2023-03-19T06:20:33.450Z,538.00
2023-03-19T06:24:33.207Z,536.00
2023-03-19T06:28:33.318Z,535.00
2023-03-19T06:32:33.521Z,536.00
2023-03-19T06:36:33.554Z,534.00
2023-03-19T06:40:34.068Z,538.00
2023-03-19T06:44:33.862Z,538.00
2023-03-19T06:48:33.965Z,530.00
2023-03-19T06:52:34.114Z,531.00
2023-03-19T06:56:34.246Z,533.00
2023-03-19T07:00:34.536Z,540.00
2023-03-19T07:04:34.450Z,539.00
2023-03-19T07:08:34.512Z,537.00
2023-03-19T07:12:34.637Z,541.00
2023-03-19T07:16:34.806Z,537.00
2023-03-19T07:20:35.098Z,532.00
2023-03-19T07:24:34.904Z,535.00
2023-03-19T07:28:34.944Z,532.00
2023-03-19T07:32:35.039Z,532.00
2023-03-19T07:36:35.081Z,529.00
2023-03-19T07:40:35.505Z,537.00
2023-03-19T07:44:35.160Z,535.00
2023-03-19T07:48:35.178Z,530.00
2023-03-19T07:52:35.249Z,533.00
2023-03-19T07:56:35.281Z,533.00
2023-03-19T08:00:35.768Z,526.00
2023-03-19T08:04:35.332Z,527.00
2023-03-19T08:08:35.292Z,529.00
2023-03-19T08:12:35.282Z,524.00
2023-03-19T08:16:35.271Z,524.00
2023-03-19T08:20:35.596Z,524.00
2023-03-19T08:24:35.235Z,521.00
2023-03-19T08:28:35.245Z,521.00
2023-03-19T08:32:35.245Z,521.00
2023-03-19T08:36:35.240Z,526.00
2023-03-19T08:40:35.572Z,526.00
2023-03-19T08:44:35.227Z,526.00
2023-03-19T08:48:35.178Z,526.00
2023-03-19T08:52:35.251Z,525.00
2023-03-19T08:56:35.272Z,526.00
2023-03-19T09:00:35.595Z,524.00
2023-03-19T09:04:35.538Z,524.00
2023-03-19T09:08:35.650Z,527.00
2023-03-19T09:12:35.627Z,526.00
2023-03-19T09:16:35.577Z,527.00
2023-03-19T09:20:35.536Z,526.00
2023-03-19T09:24:35.525Z,526.00
2023-03-19T09:28:35.482Z,526.00
2023-03-19T09:32:35.435Z,526.00
2023-03-19T09:36:35.395Z,531.00
2023-03-19T09:40:35.362Z,530.00
2023-03-19T09:44:35.336Z,525.00
2023-03-19T09:48:35.289Z,521.00
2023-03-19T09:52:35.274Z,517.00
2023-03-19T09:56:35.410Z,520.00
2023-03-19T10:00:35.509Z,517.00
2023-03-19T10:04:35.638Z,520.00
2023-03-19T10:08:35.769Z,517.00
2023-03-19T10:12:35.870Z,522.00
2023-03-19T10:16:36.017Z,516.00
2023-03-19T10:20:36.049Z,522.00
2023-03-19T10:24:36.135Z,523.00
2023-03-19T10:28:36.158Z,520.00
2023-03-19T10:32:36.236Z,520.00
2023-03-19T10:36:36.290Z,523.00
2023-03-19T10:40:36.366Z,523.00
2023-03-19T10:44:36.431Z,523.00
2023-03-19T10:48:36.441Z,523.00
2023-03-19T10:52:36.467Z,525.00
2023-03-19T10:56:36.495Z,528.00
2023-03-19T11:00:36.543Z,520.00
2023-03-19T11:04:36.598Z,522.00
2023-03-19T11:08:36.616Z,521.00
2023-03-19T11:12:36.720Z,521.00
2023-03-19T11:16:36.827Z,521.00
2023-03-19T11:20:36.809Z,518.00
2023-03-19T11:24:36.878Z,517.00
2023-03-19T11:28:36.910Z,518.00
2023-03-19T11:32:37.037Z,520.00
2023-03-19T11:36:36.921Z,520.00
2023-03-19T11:40:36.858Z,513.00
2023-03-19T11:44:36.857Z,513.00
2023-03-19T11:48:36.862Z,513.00
2023-03-19T11:52:36.820Z,516.00
2023-03-19T11:56:36.851Z,512.00
2023-03-19T12:00:36.869Z,508.00
2023-03-19T12:04:36.870Z,510.00
2023-03-19T12:08:36.953Z,512.00
2023-03-19T12:12:36.960Z,516.00
2023-03-19T12:16:44.135Z,518.00
2023-03-19T12:20:37.996Z,516.00
2023-03-19T12:24:36.943Z,515.00
2023-03-19T12:28:36.905Z,515.00
2023-03-19T12:32:37.022Z,509.00
2023-03-19T12:36:37.119Z,514.00
2023-03-19T12:40:37.270Z,512.00
2023-03-19T12:44:37.484Z,514.00
2023-03-19T12:48:37.436Z,520.00
2023-03-19T12:52:37.440Z,518.00
2023-03-19T12:56:37.391Z,518.00
2023-03-19T13:00:37.340Z,515.00
2023-03-19T13:04:39.819Z,521.00
2023-03-19T13:08:37.281Z,522.00
2023-03-19T13:12:37.277Z,520.00
2023-03-19T13:16:37.273Z,520.00
2023-03-19T13:20:37.165Z,515.00
2023-03-19T13:24:37.096Z,515.00
2023-03-19T13:28:37.084Z,510.00
2023-03-19T13:32:37.114Z,512.00
2023-03-19T13:36:37.018Z,516.00
2023-03-19T13:40:36.988Z,517.00
2023-03-19T13:44:36.964Z,517.00
2023-03-19T13:48:36.970Z,516.00
2023-03-19T13:52:36.856Z,520.00
2023-03-19T13:56:36.841Z,521.00
2023-03-19T14:00:37.001Z,519.00
2023-03-19T14:04:36.765Z,519.00
2023-03-19T14:08:36.720Z,519.00
2023-03-19T14:12:36.701Z,523.00
2023-03-19T14:16:36.734Z,524.00
2023-03-19T14:20:40.815Z,524.00
2023-03-19T14:28:37.585Z,514.00
2023-03-19T14:32:36.539Z,516.00
2023-03-19T14:36:36.464Z,513.00
2023-03-19T14:40:36.639Z,512.00
2023-03-19T14:44:36.435Z,507.00
2023-03-19T14:48:36.367Z,504.00
2023-03-19T14:52:36.445Z,509.00
2023-03-19T14:56:36.504Z,510.00
2023-03-19T15:00:36.588Z,514.00
2023-03-19T15:04:36.697Z,512.00
2023-03-19T15:08:36.762Z,510.00
2023-03-19T15:12:36.904Z,513.00
2023-03-19T15:16:37.030Z,510.00
2023-03-19T15:20:37.116Z,511.00
2023-03-19T15:24:37.254Z,509.00
2023-03-19T15:28:38.470Z,507.00
2023-03-19T15:32:54.444Z,504.00
2023-03-19T15:36:38.448Z,501.00
2023-03-19T15:40:37.634Z,507.00
2023-03-19T15:44:37.410Z,506.00
2023-03-19T15:48:37.519Z,509.00
2023-03-19T15:52:37.615Z,507.00
2023-03-19T15:56:37.813Z,504.00
2023-03-19T16:00:40.066Z,509.00
2023-03-19T16:05:03.557Z,509.00
2023-03-19T16:08:39.094Z,508.00
2023-03-19T16:12:38.082Z,506.00
2023-03-19T16:16:38.025Z,504.00
2023-03-19T16:20:38.162Z,501.00
2023-03-19T16:24:38.331Z,502.00
2023-03-19T16:28:38.685Z,503.00
2023-03-19T16:32:38.802Z,507.00
2023-03-19T16:36:38.957Z,505.00
2023-03-19T16:40:38.919Z,505.00
2023-03-19T16:44:38.894Z,506.00
2023-03-19T16:48:38.850Z,506.00
2023-03-19T16:52:38.826Z,507.00
2023-03-19T16:56:38.772Z,506.00
2023-03-19T17:00:38.725Z,509.00
2023-03-19T17:04:38.770Z,506.00
2023-03-19T17:08:38.662Z,503.00
2023-03-19T17:12:38.636Z,503.00
2023-03-19T17:16:38.595Z,502.00
2023-03-19T17:20:38.614Z,501.00
2023-03-19T17:24:38.572Z,497.00
2023-03-19T17:28:38.535Z,504.00
2023-03-19T17:32:38.721Z,500.00
2023-03-19T17:36:38.445Z,502.00
2023-03-19T17:40:38.449Z,506.00
2023-03-19T17:44:38.366Z,506.00
2023-03-19T17:48:38.328Z,502.00
2023-03-19T17:52:38.310Z,498.00
2023-03-19T17:56:38.288Z,494.00
2023-03-19T18:00:38.820Z,493.00
2023-03-19T18:04:38.286Z,494.00
2023-03-19T18:08:38.192Z,494.00
2023-03-19T18:12:38.187Z,498.00
2023-03-19T18:16:38.177Z,497.00
2023-03-19T18:20:38.108Z,504.00
2023-03-19T18:24:38.061Z,503.00
2023-03-19T18:28:38.016Z,499.00
2023-03-19T18:32:38.045Z,499.00
2023-03-19T18:36:37.940Z,502.00
2023-03-19T18:40:38.059Z,500.00
2023-03-19T18:44:38.029Z,504.00
2023-03-19T18:48:37.989Z,502.00
2023-03-19T18:52:37.950Z,500.00
2023-03-19T18:56:37.940Z,496.00
2023-03-19T19:00:37.895Z,494.00
2023-03-19T19:04:37.903Z,493.00
2023-03-19T19:08:37.805Z,494.00
2023-03-19T19:12:37.767Z,493.00
2023-03-19T19:16:37.808Z,491.00
2023-03-19T19:20:37.673Z,492.00
2023-03-19T19:24:37.660Z,494.00
2023-03-19T19:28:39.967Z,491.00
2023-03-19T19:32:37.869Z,488.00
2023-03-19T19:36:37.549Z,487.00
2023-03-19T19:40:37.785Z,486.00
2023-03-19T19:44:37.473Z,486.00
2023-03-19T19:48:37.439Z,488.00
2023-03-19T19:52:37.419Z,492.00
2023-03-19T19:56:37.376Z,490.00
2023-03-19T20:00:37.325Z,490.00
2023-03-19T20:04:37.278Z,491.00
2023-03-19T20:08:37.229Z,490.00
2023-03-19T20:12:37.194Z,490.00
2023-03-19T20:16:37.157Z,491.00
2023-03-19T20:20:37.104Z,488.00
2023-03-19T20:24:37.102Z,488.00
2023-03-19T20:28:37.067Z,489.00
2023-03-19T20:32:37.117Z,487.00
2023-03-19T20:36:36.957Z,490.00
2023-03-19T20:40:36.942Z,491.00
2023-03-19T20:44:37.048Z,488.00
2023-03-19T20:48:36.873Z,488.00
2023-03-19T20:52:36.831Z,485.00
2023-03-19T20:56:36.781Z,481.00
2023-03-19T21:00:36.905Z,483.00
2023-03-19T21:04:36.705Z,480.00
2023-03-19T21:08:36.673Z,485.00
2023-03-19T21:12:36.687Z,487.00
2023-03-19T21:16:36.668Z,488.00
2023-03-19T21:20:36.577Z,486.00
2023-03-19T21:24:36.528Z,487.00
2023-03-19T21:28:36.471Z,485.00
2023-03-19T21:32:36.553Z,480.00
2023-03-19T21:36:36.449Z,477.00
2023-03-19T21:40:36.388Z,482.00
2023-03-19T21:44:36.394Z,487.00
2023-03-19T21:48:36.408Z,485.00
2023-03-19T21:52:54.087Z,486.00
2023-03-19T21:56:37.381Z,488.00
2023-03-19T22:00:36.374Z,486.00
2023-03-19T22:04:36.277Z,482.00
2023-03-19T22:08:36.260Z,482.00
2023-03-19T22:12:36.226Z,484.00
2023-03-19T22:16:36.211Z,488.00
2023-03-19T22:20:36.133Z,485.00
2023-03-19T22:24:36.127Z,480.00
2023-03-19T22:28:36.107Z,479.00
2023-03-19T22:32:36.114Z,478.00
2023-03-19T22:36:36.073Z,478.00
2023-03-19T22:40:36.058Z,481.00
2023-03-19T22:44:36.063Z,481.00
2023-03-19T22:48:36.040Z,481.00
2023-03-19T22:52:36.066Z,479.00
2023-03-19T22:56:36.064Z,482.00
2023-03-19T23:00:36.049Z,480.00
2023-03-19T23:04:36.085Z,481.00
2023-03-19T23:08:36.039Z,477.00
2023-03-19T23:12:36.109Z,478.00
2023-03-19T23:16:36.129Z,477.00
2023-03-19T23:20:36.111Z,476.00
2023-03-19T23:24:36.100Z,476.00
2023-03-19T23:28:36.118Z,477.00
2023-03-19T23:32:36.192Z,477.00
2023-03-19T23:36:36.156Z,477.00
2023-03-19T23:40:36.180Z,483.00
2023-03-19T23:44:36.184Z,480.00
2023-03-19T23:48:36.230Z,483.00
2023-03-19T23:52:36.240Z,482.00
2023-03-19T23:56:36.209Z,481.00
